createdAt,value
2022-09-04T00:01:08.539Z,99.90
2022-09-04T00:03:44.401Z,99.90
2022-09-04T00:06:19.661Z,99.90
2022-09-04T00:08:59.352Z,99.90
2022-09-04T00:11:46.612Z,99.90
2022-09-04T00:14:27.519Z,99.90
2022-09-04T00:17:03.858Z,99.90
2022-09-04T00:19:43.897Z,99.90
2022-09-04T00:22:29.329Z,99.90
2022-09-04T00:25:09.339Z,99.90
2022-09-04T00:27:44.779Z,99.90
2022-09-04T00:30:20.536Z,99.90
2022-09-04T00:32:51.888Z,99.90
2022-09-04T00:35:20.918Z,99.90
2022-09-04T00:37:58.995Z,99.90
2022-09-04T00:40:34.018Z,99.90
2022-09-04T00:43:32.187Z,99.90
2022-09-04T00:46:20.495Z,99.90
2022-09-04T00:49:18.374Z,99.90
2022-09-04T00:51:45.169Z,99.90
2022-09-04T00:54:33.670Z,99.90
2022-09-04T00:57:25.622Z,99.90
2022-09-04T01:00:16.168Z,99.90
2022-09-04T01:03:25.411Z,99.90
2022-09-04T01:06:13.259Z,99.90
2022-09-04T01:09:24.755Z,99.90
2022-09-04T01:12:23.154Z,99.90
2022-09-04T01:15:14.566Z,99.90
2022-09-04T01:18:06.593Z,99.90
2022-09-04T01:20:57.677Z,99.90
2022-09-04T01:23:49.467Z,99.90
2022-09-04T01:26:43.512Z,99.90
2022-09-04T01:29:29.535Z,99.90
2022-09-04T01:32:09.154Z,99.90
2022-09-04T01:34:47.637Z,99.90
2022-09-04T01:37:48.125Z,99.90
2022-09-04T01:40:35.477Z,99.90
2022-09-04T01:43:11.229Z,99.90
2022-09-04T01:46:05.185Z,99.90
2022-09-04T01:48:38.282Z,99.90
2022-09-04T01:51:28.895Z,99.90
2022-09-04T01:54:08.846Z,99.90
2022-09-04T01:57:00.873Z,99.90
2022-09-04T01:59:55.822Z,99.90
2022-09-04T02:03:10.633Z,99.90
2022-09-04T02:05:40.515Z,99.90
2022-09-04T02:08:26.907Z,99.90
2022-09-04T02:11:17.890Z,99.90
2022-09-04T02:14:08.679Z,99.90
2022-09-04T02:16:42.810Z,99.90
2022-09-04T02:19:18.546Z,99.90
2022-09-04T02:21:56.079Z,99.90
2022-09-04T02:24:33.234Z,99.90
2022-09-04T02:27:03.115Z,99.90
2022-09-04T02:29:47.997Z,99.90
2022-09-04T02:32:30.146Z,99.90
2022-09-04T02:35:31.263Z,99.90
2022-09-04T02:38:24.150Z,99.90
2022-09-04T02:41:15.763Z,99.90
2022-09-04T02:44:07.083Z,99.90
2022-09-04T02:46:48.122Z,99.90
2022-09-04T02:49:48.473Z,99.90
2022-09-04T02:52:34.074Z,99.90
2022-09-04T02:55:18.478Z,99.90
2022-09-04T02:57:58.073Z,99.90
2022-09-04T03:00:55.225Z,99.90
2022-09-04T03:03:34.722Z,99.90
2022-09-04T03:06:23.491Z,99.90
2022-09-04T03:08:59.707Z,99.90
2022-09-04T03:11:56.220Z,99.90
2022-09-04T03:14:46.617Z,99.90
2022-09-04T03:17:41.940Z,99.90
2022-09-04T03:20:22.622Z,99.90
2022-09-04T03:23:08.293Z,99.90
2022-09-04T03:26:00.865Z,99.90
2022-09-04T03:28:50.810Z,99.90
2022-09-04T03:31:32.755Z,99.90
2022-09-04T03:34:22.878Z,99.90
2022-09-04T03:37:07.455Z,99.90
2022-09-04T03:39:57.398Z,99.90
2022-09-04T03:43:08.504Z,99.90
2022-09-04T03:45:56.872Z,99.90
2022-09-04T03:49:01.257Z,99.90
2022-09-04T03:51:55.663Z,99.90
2022-09-04T03:54:44.394Z,99.90
2022-09-04T03:57:11.923Z,99.90
2022-09-04T04:00:00.391Z,99.90
2022-09-04T04:02:45.753Z,99.90
2022-09-04T04:05:25.846Z,99.90
2022-09-04T04:08:07.954Z,99.90
2022-09-04T04:11:05.363Z,99.90
2022-09-04T04:13:55.840Z,99.90
2022-09-04T04:16:40.625Z,99.90
2022-09-04T04:19:33.737Z,99.90
2022-09-04T04:22:15.810Z,99.90
2022-09-04T04:25:09.205Z,99.90
2022-09-04T04:27:48.718Z,99.90
2022-09-04T04:30:17.610Z,99.90
2022-09-04T04:33:17.899Z,99.90
2022-09-04T04:36:13.169Z,99.90
2022-09-04T04:39:02.984Z,99.90
2022-09-04T04:42:04.664Z,99.90
2022-09-04T04:45:11.883Z,99.90
2022-09-04T04:48:08.671Z,99.90
2022-09-04T04:51:05.963Z,99.90
2022-09-04T04:53:49.323Z,99.90
2022-09-04T04:56:29.058Z,99.90
2022-09-04T04:59:08.151Z,99.90
2022-09-04T05:01:50.567Z,99.90
2022-09-04T05:04:36.189Z,99.90
2022-09-04T05:07:32.125Z,99.90
2022-09-04T05:10:10.585Z,99.90
2022-09-04T05:13:04.868Z,99.90
2022-09-04T05:16:09.404Z,99.90
2022-09-04T05:18:52.845Z,99.90
2022-09-04T05:21:38.507Z,99.90
2022-09-04T05:24:31.062Z,99.90
2022-09-04T05:27:07.247Z,99.90
2022-09-04T05:29:51.761Z,99.90
2022-09-04T05:32:45.631Z,99.90
2022-09-04T05:35:42.196Z,99.90
2022-09-04T05:38:31.054Z,99.90
2022-09-04T05:41:27.076Z,99.90
2022-09-04T05:44:09.845Z,99.90
2022-09-04T05:47:01.127Z,99.90
2022-09-04T05:49:51.925Z,99.90
2022-09-04T05:52:46.336Z,99.90
2022-09-04T05:55:32.059Z,99.90
2022-09-04T05:58:33.865Z,99.90
2022-09-04T06:01:15.774Z,99.90
2022-09-04T06:04:11.360Z,99.90
2022-09-04T06:07:04.235Z,99.90
2022-09-04T06:09:51.314Z,99.90
2022-09-04T06:12:23.375Z,99.90
2022-09-04T06:15:19.334Z,99.90
2022-09-04T06:18:11.213Z,99.90
2022-09-04T06:20:48.594Z,99.90
2022-09-04T06:23:18.466Z,99.90
2022-09-04T06:26:29.580Z,99.90
2022-09-04T06:29:35.533Z,99.90
2022-09-04T06:32:32.827Z,99.90
2022-09-04T06:35:29.124Z,99.90
2022-09-04T06:38:14.990Z,99.90
2022-09-04T06:41:14.346Z,99.90
2022-09-04T06:43:59.203Z,99.90
2022-09-04T06:46:50.360Z,99.90
2022-09-04T06:49:18.030Z,99.90
2022-09-04T06:52:12.745Z,99.90
2022-09-04T06:55:00.219Z,99.90
2022-09-04T06:57:59.880Z,99.90
2022-09-04T07:00:30.367Z,99.90
2022-09-04T07:03:24.278Z,99.90
2022-09-04T07:06:09.331Z,99.90
2022-09-04T07:08:42.379Z,99.90
2022-09-04T07:11:37.466Z,99.90
2022-09-04T07:14:20.434Z,99.90
2022-09-04T07:17:08.023Z,99.90
2022-09-04T07:19:34.902Z,99.90
2022-09-04T07:22:32.474Z,99.90
2022-09-04T07:25:23.434Z,99.90
2022-09-04T07:28:13.923Z,99.90
2022-09-04T07:30:52.224Z,99.90
2022-09-04T07:33:42.329Z,99.90
2022-09-04T07:36:29.856Z,99.90
2022-09-04T07:39:10.861Z,99.90
2022-09-04T07:41:46.224Z,99.90
2022-09-04T07:44:39.745Z,99.90
2022-09-04T07:47:30.505Z,99.90
2022-09-04T07:50:00.391Z,99.90
2022-09-04T07:52:51.711Z,99.90
2022-09-04T07:55:36.971Z,99.90
2022-09-04T07:58:28.815Z,99.90
2022-09-04T08:01:45.930Z,99.90
2022-09-04T08:04:39.486Z,99.90
2022-09-04T08:07:18.091Z,99.90
2022-09-04T08:10:19.934Z,99.90
2022-09-04T08:12:56.379Z,99.90
2022-09-04T08:15:42.972Z,99.90
2022-09-04T08:18:36.659Z,99.90
2022-09-04T08:21:20.989Z,99.90
2022-09-04T08:24:34.189Z,99.90
2022-09-04T08:27:24.558Z,99.90
2022-09-04T08:30:13.286Z,99.90
2022-09-04T08:33:04.768Z,99.90
2022-09-04T08:35:49.910Z,99.90
2022-09-04T08:38:31.950Z,99.90
2022-09-04T08:41:11.203Z,99.90
2022-09-04T08:44:11.484Z,99.90
2022-09-04T08:46:49.472Z,99.90
2022-09-04T08:49:55.203Z,99.90
2022-09-04T08:52:52.691Z,99.90
2022-09-04T08:55:46.261Z,99.90
2022-09-04T08:58:31.667Z,99.90
2022-09-04T09:01:10.435Z,99.90
2022-09-04T09:03:54.569Z,99.90
2022-09-04T09:06:59.153Z,99.90
2022-09-04T09:09:55.788Z,99.90
2022-09-04T09:12:55.810Z,99.90
2022-09-04T09:15:57.684Z,99.90
2022-09-04T09:18:24.515Z,99.90
2022-09-04T09:21:11.434Z,99.90
2022-09-04T09:23:58.336Z,99.90
2022-09-04T09:26:33.450Z,99.90
2022-09-04T09:29:26.481Z,99.90
2022-09-04T09:32:28.900Z,99.90
2022-09-04T09:34:58.547Z,99.90
2022-09-04T09:37:53.883Z,99.90
2022-09-04T09:40:48.566Z,99.90
2022-09-04T09:43:42.106Z,99.90
2022-09-04T09:46:23.153Z,99.90
2022-09-04T09:49:08.654Z,99.90
2022-09-04T09:51:41.928Z,99.90
2022-09-04T09:54:20.721Z,99.90
2022-09-04T09:57:12.496Z,99.90
2022-09-04T10:00:11.358Z,99.90
2022-09-04T10:02:55.698Z,99.90
2022-09-04T10:05:51.922Z,99.90
2022-09-04T10:08:37.273Z,99.90
2022-09-04T10:11:33.687Z,99.90
2022-09-04T10:14:25.285Z,99.90
2022-09-04T10:17:07.975Z,99.90
2022-09-04T10:20:20.329Z,99.90
2022-09-04T10:23:05.167Z,99.90
2022-09-04T10:25:55.469Z,99.90
2022-09-04T10:28:40.828Z,99.90
2022-09-04T10:31:35.283Z,99.90
2022-09-04T10:34:19.226Z,99.90
2022-09-04T10:37:04.010Z,99.90
2022-09-04T10:40:04.400Z,99.90
2022-09-04T10:42:45.719Z,99.90
2022-09-04T10:45:41.373Z,99.90
2022-09-04T10:48:32.895Z,99.90
2022-09-04T10:51:19.273Z,99.90
2022-09-04T10:54:16.805Z,99.90
2022-09-04T10:57:04.792Z,99.90
2022-09-04T10:59:50.404Z,99.90
2022-09-04T11:02:41.099Z,99.90
2022-09-04T11:05:25.545Z,99.90
2022-09-04T11:08:46.632Z,99.90
2022-09-04T11:11:52.722Z,99.90
2022-09-04T11:14:57.491Z,99.90
2022-09-04T11:17:52.279Z,99.90
2022-09-04T11:20:44.154Z,99.90
2022-09-04T11:23:22.954Z,99.90
2022-09-04T11:25:50.302Z,99.90
2022-09-04T11:28:40.161Z,99.90
2022-09-04T11:31:06.997Z,99.90
2022-09-04T11:34:15.446Z,99.90
2022-09-04T11:37:02.049Z,99.90
2022-09-04T11:39:28.922Z,99.90
2022-09-04T11:41:56.514Z,99.90
2022-09-04T11:45:03.741Z,99.90
2022-09-04T11:47:54.506Z,99.90
2022-09-04T11:50:36.560Z,99.90
2022-09-04T11:53:22.190Z,99.90
2022-09-04T11:56:18.969Z,99.90
2022-09-04T11:59:05.304Z,99.90
2022-09-04T12:01:32.528Z,99.90
2022-09-04T12:04:28.384Z,99.90
2022-09-04T12:07:14.150Z,99.90
2022-09-04T12:10:13.759Z,99.90
2022-09-04T12:13:00.443Z,99.90
2022-09-04T12:15:54.329Z,99.90
2022-09-04T12:18:58.893Z,99.90
2022-09-04T12:21:54.927Z,99.90
2022-09-04T12:24:40.380Z,99.90
2022-09-04T12:27:31.428Z,99.90
2022-09-04T12:30:18.550Z,99.90
2022-09-04T12:32:54.340Z,99.90
2022-09-04T12:35:50.622Z,99.90
2022-09-04T12:39:10.375Z,99.90
2022-09-04T12:42:08.090Z,99.90
2022-09-04T12:44:40.510Z,99.90
2022-09-04T12:47:25.889Z,99.90
2022-09-04T12:50:00.441Z,99.90
2022-09-04T12:52:46.240Z,99.90
2022-09-04T12:55:35.891Z,99.90
2022-09-04T12:58:34.395Z,99.90
2022-09-04T13:01:10.546Z,99.90
2022-09-04T13:03:59.864Z,99.90
2022-09-04T13:06:53.498Z,99.90
2022-09-04T13:09:53.033Z,99.90
2022-09-04T13:13:04.497Z,99.90
2022-09-04T13:15:34.457Z,99.80
2022-09-04T13:18:04.219Z,99.90
2022-09-04T13:20:52.379Z,99.90
2022-09-04T13:23:46.631Z,99.90
2022-09-04T13:26:25.889Z,99.90
2022-09-04T13:29:16.988Z,99.90
2022-09-04T13:31:51.344Z,99.90
2022-09-04T13:34:44.434Z,99.70
2022-09-04T13:37:24.592Z,99.30
2022-09-04T13:40:12.473Z,99.60
2022-09-04T13:43:13.144Z,98.90
2022-09-04T13:45:55.725Z,98.00
2022-09-04T13:48:47.742Z,98.60
2022-09-04T13:51:35.654Z,97.80
2022-09-04T13:54:21.348Z,97.20
2022-09-04T13:56:58.280Z,96.70
2022-09-04T13:59:25.710Z,96.40
2022-09-04T14:01:56.240Z,97.00
2022-09-04T14:04:40.452Z,96.70
2022-09-04T14:07:18.764Z,96.60
2022-09-04T14:09:49.941Z,97.50
2022-09-04T14:12:33.938Z,96.00
2022-09-04T14:15:19.459Z,96.20
2022-09-04T14:17:52.299Z,95.60
2022-09-04T14:20:28.974Z,94.90
2022-09-04T14:23:10.235Z,95.10
2022-09-04T14:25:50.821Z,95.60
2022-09-04T14:28:32.331Z,95.10
2022-09-04T14:31:13.372Z,93.80
2022-09-04T14:34:19.260Z,94.60
2022-09-04T14:36:59.829Z,96.80
2022-09-04T14:39:48.471Z,96.60
2022-09-04T14:42:42.830Z,96.40
2022-09-04T14:45:12.473Z,97.60
2022-09-04T14:47:53.657Z,97.60
2022-09-04T14:50:24.095Z,98.10
2022-09-04T14:52:55.602Z,98.20
2022-09-04T14:55:28.660Z,97.20
2022-09-04T14:58:13.742Z,97.70
2022-09-04T15:01:03.406Z,98.20
2022-09-04T15:03:55.386Z,97.10
2022-09-04T15:06:54.616Z,97.80
2022-09-04T15:09:38.257Z,98.10
2022-09-04T15:12:26.049Z,99.20
2022-09-04T15:15:03.411Z,99.90
2022-09-04T15:17:31.485Z,99.90
2022-09-04T15:20:01.785Z,99.90
2022-09-04T15:22:53.219Z,99.90
2022-09-04T15:25:57.836Z,99.90
2022-09-04T15:28:45.115Z,99.90
2022-09-04T15:31:35.349Z,99.90
2022-09-04T15:34:08.835Z,99.90
2022-09-04T15:36:37.811Z,99.90
2022-09-04T15:39:09.193Z,99.90
2022-09-04T15:41:47.096Z,99.90
2022-09-04T15:44:32.783Z,99.90
2022-09-04T15:47:25.162Z,99.90
2022-09-04T15:50:00.472Z,99.90
2022-09-04T15:52:30.539Z,99.90
2022-09-04T15:55:10.466Z,99.90
2022-09-04T15:57:58.520Z,99.90
2022-09-04T16:00:29.362Z,99.50
2022-09-04T16:03:26.082Z,99.70
2022-09-04T16:06:07.361Z,99.90
2022-09-04T16:08:56.854Z,99.60
2022-09-04T16:11:59.793Z,99.80
2022-09-04T16:14:46.339Z,99.90
2022-09-04T16:17:21.165Z,99.90
2022-09-04T16:20:04.497Z,99.90
2022-09-04T16:22:54.357Z,99.90
2022-09-04T16:25:29.240Z,99.90
2022-09-04T16:28:05.994Z,99.90
2022-09-04T16:30:41.673Z,99.90
2022-09-04T16:33:28.004Z,99.90
2022-09-04T16:36:34.918Z,99.90
2022-09-04T16:39:20.750Z,99.90
2022-09-04T16:42:00.215Z,99.90
2022-09-04T16:44:33.627Z,99.90
2022-09-04T16:47:04.906Z,99.90
2022-09-04T16:50:14.887Z,99.90
2022-09-04T16:52:41.627Z,99.90
2022-09-04T16:55:13.905Z,99.90
2022-09-04T16:58:02.568Z,99.90
2022-09-04T17:01:13.822Z,99.90
2022-09-04T17:04:13.460Z,99.90
2022-09-04T17:07:03.084Z,99.90
2022-09-04T17:10:01.796Z,99.90
2022-09-04T17:12:42.213Z,99.90
2022-09-04T17:15:24.212Z,99.90
2022-09-04T17:17:54.352Z,99.90
2022-09-04T17:20:40.174Z,99.90
2022-09-04T17:29:01.277Z,99.90
2022-09-04T17:29:03.379Z,99.90
2022-09-04T17:29:34.369Z,99.90
2022-09-04T17:33:28.707Z,99.90
2022-09-04T17:40:33.087Z,99.90
2022-09-04T17:40:37.147Z,99.90
2022-09-04T17:41:31.094Z,99.90
2022-09-04T17:44:38.075Z,99.90
2022-09-04T17:47:28.744Z,99.90
2022-09-04T17:49:57.003Z,99.90
2022-09-04T17:52:26.965Z,99.90
2022-09-04T17:54:59.051Z,99.90
2022-09-04T17:57:55.700Z,99.90
2022-09-04T18:00:30.091Z,99.90
2022-09-04T18:03:13.896Z,99.90
2022-09-04T18:05:53.315Z,99.90
2022-09-04T18:08:34.382Z,99.90
2022-09-04T18:11:12.489Z,99.90
2022-09-04T18:14:02.457Z,99.90
2022-09-04T18:16:35.487Z,99.90
2022-09-04T18:19:37.080Z,99.90
2022-09-04T18:22:31.896Z,99.90
2022-09-04T18:25:18.732Z,99.90
2022-09-04T18:28:11.689Z,99.90
2022-09-04T18:37:06.204Z,99.90
2022-09-04T18:37:23.205Z,99.90
2022-09-04T18:37:47.265Z,99.90
2022-09-04T18:43:22.232Z,99.90
2022-09-04T18:50:20.338Z,99.90
2022-09-04T18:50:48.103Z,99.90
2022-09-04T18:50:51.557Z,99.90
2022-09-04T18:52:03.939Z,99.90
2022-09-04T18:54:47.560Z,99.90
2022-09-04T18:57:34.894Z,99.90
2022-09-04T19:00:10.371Z,99.90
2022-09-04T19:02:53.064Z,99.90
2022-09-04T19:05:24.349Z,99.90
2022-09-04T19:07:56.831Z,99.90
2022-09-04T19:10:37.028Z,99.90
2022-09-04T19:13:19.599Z,99.90
2022-09-04T19:16:17.875Z,99.90
2022-09-04T19:19:00.874Z,99.90
2022-09-04T19:21:57.815Z,99.90
2022-09-04T19:24:50.094Z,99.90
2022-09-04T19:27:28.293Z,99.90
2022-09-04T19:30:32.991Z,99.90
2022-09-04T19:33:04.892Z,99.90
2022-09-04T19:35:46.234Z,99.90
2022-09-04T19:45:57.518Z,99.90
2022-09-04T19:46:08.361Z,99.90
2022-09-04T19:46:13.768Z,99.90
2022-09-04T19:47:00.704Z,99.90
2022-09-04T19:53:19.046Z,99.90
2022-09-04T19:53:33.616Z,99.90
2022-09-04T19:55:47.048Z,99.90
2022-09-04T19:58:42.672Z,99.90
2022-09-04T20:01:25.817Z,99.90
2022-09-04T20:04:18.580Z,99.90
2022-09-04T20:06:52.305Z,99.90
2022-09-04T20:09:44.568Z,99.90
2022-09-04T20:12:26.409Z,99.90
2022-09-04T20:15:14.353Z,99.90
2022-09-04T20:18:05.614Z,99.90
2022-09-04T20:20:45.109Z,99.90
2022-09-04T20:23:35.205Z,99.90
2022-09-04T20:26:17.917Z,99.90
2022-09-04T20:29:17.649Z,99.90
2022-09-04T20:31:45.233Z,99.90
2022-09-04T20:34:36.414Z,99.90
2022-09-04T20:37:20.100Z,99.90
2022-09-04T20:39:53.205Z,99.90
2022-09-04T20:42:27.514Z,99.90
2022-09-04T20:46:35.595Z,99.90
2022-09-04T20:52:58.596Z,99.90
2022-09-04T20:53:00.568Z,99.90
2022-09-04T20:54:23.381Z,99.90
2022-09-04T21:02:34.705Z,99.90
2022-09-04T21:03:22.692Z,99.90
2022-09-04T21:03:41.277Z,99.90
2022-09-04T21:06:56.889Z,99.90
2022-09-04T21:09:55.574Z,99.90
2022-09-04T21:12:46.252Z,99.90
2022-09-04T21:15:47.053Z,99.90
2022-09-04T21:18:34.346Z,99.90
2022-09-04T21:21:15.539Z,99.90
2022-09-04T21:24:03.136Z,99.90
2022-09-04T21:27:33.070Z,99.90
2022-09-04T21:30:05.839Z,99.90
2022-09-04T21:33:27.251Z,99.90
2022-09-04T21:36:26.747Z,99.90
2022-09-04T21:38:57.255Z,99.90
2022-09-04T21:42:04.383Z,99.90
2022-09-04T21:45:06.789Z,99.90
2022-09-04T21:47:58.396Z,99.90
2022-09-04T21:50:40.533Z,99.90
2022-09-04T21:53:41.338Z,99.90
2022-09-04T22:01:22.256Z,99.90
2022-09-04T22:02:44.441Z,99.90
2022-09-04T22:03:20.125Z,99.90
2022-09-04T22:06:04.209Z,99.90
2022-09-04T22:13:26.574Z,99.90
2022-09-04T22:13:38.742Z,99.90
2022-09-04T22:14:50.279Z,99.90
2022-09-04T22:17:24.418Z,99.90
2022-09-04T22:20:11.257Z,99.90
2022-09-04T22:22:43.964Z,99.90
2022-09-04T22:25:26.018Z,99.90
2022-09-04T22:28:20.201Z,99.90
2022-09-04T22:31:18.663Z,99.90
2022-09-04T22:34:15.606Z,99.90
2022-09-04T22:37:05.608Z,99.90
2022-09-04T22:39:57.685Z,99.90
2022-09-04T22:42:24.526Z,99.90
2022-09-04T22:45:09.641Z,99.90
2022-09-04T22:48:14.834Z,99.90
2022-09-04T22:51:19.385Z,99.90
2022-09-04T22:54:16.699Z,99.90
2022-09-04T22:56:49.609Z,99.90
2022-09-04T22:59:54.150Z,99.90
2022-09-04T23:03:04.080Z,99.90
2022-09-04T23:05:35.027Z,99.90
2022-09-04T23:13:42.180Z,99.90
2022-09-04T23:13:59.147Z,99.90
2022-09-04T23:15:15.619Z,99.90
2022-09-04T23:20:02.005Z,99.90
2022-09-04T23:26:34.208Z,99.90
2022-09-04T23:26:52.998Z,99.90
2022-09-04T23:27:28.856Z,99.90
2022-09-04T23:30:49.076Z,99.90
2022-09-04T23:33:37.981Z,99.90
2022-09-04T23:36:27.373Z,99.90
2022-09-04T23:39:54.560Z,99.90
2022-09-04T23:42:45.714Z,99.90
2022-09-04T23:45:24.102Z,99.90
2022-09-04T23:48:04.201Z,99.90
2022-09-04T23:50:49.652Z,99.90
2022-09-04T23:53:41.114Z,99.90
2022-09-04T23:57:00.679Z,99.90
